Maersk Kobe — 9HA3376 — position and weather

sailwx.info

Track history (hours):
 
Tides and Currents Weather Stations Pressure Air Temp Water Temp Dewpoint Dewpoint Depression Visibility Wind Speed Wind Dir Waves Ship Positions

Maersk Kobe

Last reported at 2017-Dec-16 15:26 UTC. Time now 2017-Dec-16 22:46 UTC.
Position N 39°42' W 032°19'.

Length 304 m; draft 13.7 m.

Type: Cargo ship. MMSI: 229521000.

Date/timePositionNaut miles runAvg speedWind from/ knotsBaromVisibWave heightAir tempDewpointWater temp
2017-Dec-16 15:26N 39°42' W 032°19'1117.9
2017-Dec-16 14:48N 39°41' W 032°04'917.7
2017-Dec-16 14:18N 39°41' W 031°53'817.9
2017-Dec-16 13:51N 39°40' W 031°42'1618.0
2017-Dec-16 12:58N 39°38' W 031°22'817.9
2017-Dec-16 12:30N 39°38' W 031°11'918.4
2017-Dec-16 12:00N 39°37' W 030°59'1318.5
2017-Dec-16 11:19N 39°35' W 030°43'618.9
2017-Dec-16 11:00N 39°35' W 030°35'1018.6
2017-Dec-16 10:29N 39°34' W 030°23'918.4
2017-Dec-16 10:00N 39°33' W 030°11'918.4
2017-Dec-16 09:30N 39°32' W 029°59'918.5
2017-Dec-16 09:00N 39°31' W 029°48'918.5
2017-Dec-16 08:30N 39°30' W 029°36'918.6
2017-Dec-16 08:00N 39°29' W 029°24'918.6
2017-Dec-16 07:30N 39°28' W 029°12'918.4
2017-Dec-16 07:00N 39°27' W 028°60'918.4
2017-Dec-16 06:30N 39°26' W 028°48'918.5
2017-Dec-16 06:00N 39°25' W 028°36'918.5
2017-Dec-16 05:30N 39°24' W 028°24'918.3
2017-Dec-16 05:00N 39°23' W 028°12'918.5
2017-Dec-16 04:30N 39°22' W 028°01'918.3
2017-Dec-16 04:00N 39°21' W 027°49'918.4
2017-Dec-16 03:30N 39°21' W 027°37'918.4
2017-Dec-16 03:00N 39°20' W 027°25'918.4
2017-Dec-16 02:30N 39°19' W 027°13'918.2
2017-Dec-16 02:00N 39°18' W 027°01'1318.4
2017-Dec-16 01:19N 39°17' W 026°45'2818.4
2017-Dec-15 23:48N 39°14' W 026°09'618.6
2017-Dec-15 23:28N 39°14' W 026°01'3718.7
2017-Dec-15 21:28N 39°10' W 025°13'919.3
2017-Dec-15 20:59N 39°09' W 025°01'919.1
2017-Dec-15 20:30N 39°08' W 024°49'1319.0
2017-Dec-15 19:47N 39°07' W 024°32'1018.8
2017-Dec-15 19:17N 39°06' W 024°20'818.8
2017-Dec-15 18:51N 39°05' W 024°10'818.9
2017-Dec-15 18:27N 39°05' W 023°60'818.8
2017-Dec-15 18:01N 39°04' W 023°49'1018.9
2017-Dec-15 17:30N 39°03' W 023°37'3518.4
2017-Dec-15 15:34N 39°00' W 022°51'117.7
2017-Dec-15 15:30N 39°00' W 022°50'917.8
2017-Dec-15 15:00N 38°59' W 022°38'917.9
2017-Dec-15 14:29N 38°58' W 022°27'1617.9
2017-Dec-15 13:35N 38°56' W 022°06'218.2
2017-Dec-15 13:30N 38°56' W 022°04'1317.5
2017-Dec-15 12:47N 38°55' W 021°48'57118.0
2017-Dec-14 05:02N 38°01' W 009°42'017.5
2017-Dec-14 05:00N 38°01' W 009°42'917.8
2017-Dec-14 04:30N 37°60' W 009°31'917.8
2017-Dec-14 04:00N 37°59' W 009°19'917.8
2017-Dec-14 03:30N 37°56' W 009°08'917.8
2017-Dec-14 03:00N 37°55' W 008°57'611.2
2017-Dec-14 02:30N 37°55' W 008°50'1 1.1
2017-Dec-14 01:59N 37°56' W 008°51'0 0.0
2017-Dec-14 01:29N 37°56' W 008°51'0 0.0
2017-Dec-14 00:59N 37°56' W 008°51'0 0.0
2017-Dec-14 00:29N 37°56' W 008°51'0 0.0
2017-Dec-13 23:59N 37°56' W 008°51'0 0.0
2017-Dec-13 23:29N 37°56' W 008°51'0 0.0
2017-Dec-13 22:59N 37°56' W 008°51'0 0.0
2017-Dec-13 22:29N 37°56' W 008°51'0 0.0
2017-Dec-13 21:59N 37°56' W 008°51'0 0.0
2017-Dec-13 21:29N 37°56' W 008°51'0 0.0
2017-Dec-13 20:59N 37°56' W 008°51'0 0.0
2017-Dec-13 20:29N 37°56' W 008°51'0 0.0
2017-Dec-13 19:59N 37°56' W 008°51'0 0.0
2017-Dec-13 19:29N 37°56' W 008°51'0 0.0
2017-Dec-13 18:59N 37°56' W 008°51'0 0.0
2017-Dec-13 18:29N 37°56' W 008°51'0 0.0
2017-Dec-13 17:59N 37°56' W 008°51'0 0.0
2017-Dec-13 17:31N 37°56' W 008°51'1 1.6
2017-Dec-13 17:00N 37°55' W 008°50'1 3.0
2017-Dec-13 16:31N 37°54' W 008°50'1 2.0
2017-Dec-13 16:00N 37°53' W 008°51'3 5.6
2017-Dec-13 15:31N 37°51' W 008°53'3 5.2
2017-Dec-13 15:00N 37°52' W 008°56'0 0.6
2017-Dec-13 14:31N 37°52' W 008°57'0 0.6
2017-Dec-13 14:00N 37°52' W 008°57'0 0.6
2017-Dec-13 13:30N 37°52' W 008°57'0 0.5
2017-Dec-13 13:00N 37°52' W 008°58'0 0.4
2017-Dec-13 12:31N 37°53' W 008°58'0 0.4
2017-Dec-13 12:01N 37°53' W 008°58'0 0.6
2017-Dec-13 11:31N 37°53' W 008°58'3 5.1
2017-Dec-13 11:00N 37°50' W 008°57'5 9.1
2017-Dec-13 10:31N 37°46' W 008°58'5 9.3
2017-Dec-13 10:01N 37°41' W 008°60'5 9.2
2017-Dec-13 09:31N 37°37' W 009°02'5 9.2
2017-Dec-13 09:01N 37°33' W 009°04'4 8.8
2017-Dec-13 08:31N 37°29' W 009°07'4 8.6
2017-Dec-13 08:00N 37°25' W 009°09'6 8.7
2017-Dec-13 07:19N 37°20' W 009°13'4 8.8
2017-Dec-13 06:51N 37°16' W 009°15'3 8.6
2017-Dec-13 06:30N 37°13' W 009°17'196 7.6
2017-Dec-12 04:50N 36°09' W 005°26'1 0.5
2017-Dec-12 03:24N 36°08' W 005°26'0 0.0
2017-Dec-12 02:51N 36°08' W 005°26'0 0.0
2017-Dec-12 02:15N 36°08' W 005°26'0 0.0
2017-Dec-12 01:57N 36°08' W 005°26'0 0.0
2017-Dec-12 01:30N 36°08' W 005°26'0 0.0
2017-Dec-12 00:57N 36°08' W 005°26'0 0.0
2017-Dec-12 00:30N 36°08' W 005°26'0 0.0
2017-Dec-12 00:00N 36°08' W 005°26'0 0.0
2017-Dec-11 23:30N 36°08' W 005°26'0 0.0
2017-Dec-11 23:00N 36°08' W 005°26'0 0.0
2017-Dec-11 22:30N 36°08' W 005°26'0 0.0
2017-Dec-11 22:00N 36°08' W 005°26'0 0.0
2017-Dec-11 21:30N 36°08' W 005°26'0 0.0
2017-Dec-11 21:00N 36°08' W 005°26'221 6.4
2017-Dec-10 10:12N 37°14' W 001°03'919.6
2017-Dec-10 09:46N 37°20' W 000°55'619.5
2017-Dec-10 09:27N 37°24' W 000°49'919.3
2017-Dec-10 09:00N 37°30' W 000°41'919.1
2017-Dec-10 08:30N 37°36' W 000°32'918.7
2017-Dec-10 08:00N 37°44' W 000°26'1418.7
2017-Dec-10 07:16N 37°55' W 000°16'518.7
2017-Dec-10 07:00N 37°59' W 000°13'1018.4
2017-Dec-10 06:28N 38°08' W 000°06'435 9.0
2017-Dec-08 06:15N 42°53' E 007°06'617.3
2017-Dec-08 05:54N 42°57' E 007°13'1117.5
2017-Dec-08 05:16N 43°03' E 007°25'617.3
2017-Dec-08 04:55N 43°07' E 007°32'4417.1
2017-Dec-08 02:22N 43°36' E 008°17'717.0
2017-Dec-08 01:58N 43°42' E 008°22'817.2
2017-Dec-08 01:30N 43°49' E 008°26'817.2
2017-Dec-08 01:00N 43°57' E 008°30'917.2
2017-Dec-08 00:30N 44°05' E 008°34'917.8
2017-Dec-08 00:00N 44°13' E 008°38'917.7
2017-Dec-07 23:30N 44°22' E 008°42'5 9.3
2017-Dec-07 23:00N 44°25' E 008°47'0 0.6
2017-Dec-07 22:28N 44°25' E 008°47'0 0.0
2017-Dec-07 21:58N 44°25' E 008°47'0 0.0
2017-Dec-07 21:28N 44°25' E 008°47'0 0.0
2017-Dec-07 20:55N 44°25' E 008°47'0 0.0
2017-Dec-07 20:28N 44°25' E 008°47'0 0.0
2017-Dec-07 19:58N 44°25' E 008°47'0 0.0
2017-Dec-07 19:28N 44°25' E 008°47'0 0.0
2017-Dec-07 18:58N 44°25' E 008°47'0 0.0
2017-Dec-07 18:28N 44°25' E 008°47'0 0.0
2017-Dec-07 17:58N 44°25' E 008°47'0 0.0
2017-Dec-07 17:28N 44°25' E 008°47'0 0.0
2017-Dec-07 16:58N 44°25' E 008°47'0 0.0
2017-Dec-07 16:28N 44°25' E 008°47'0 0.0
2017-Dec-07 15:58N 44°25' E 008°47'0 0.0
2017-Dec-07 15:28N 44°25' E 008°47'0 0.0
2017-Dec-07 14:58N 44°25' E 008°47'0 0.0
2017-Dec-07 14:25N 44°25' E 008°47'0 0.0
2017-Dec-07 13:58N 44°25' E 008°47'0 0.0
2017-Dec-07 13:28N 44°25' E 008°47'0 0.1
2017-Dec-07 12:58N 44°25' E 008°47'0 0.0
2017-Dec-07 12:28N 44°25' E 008°47'0 0.0
2017-Dec-07 11:58N 44°25' E 008°47'0 0.0
2017-Dec-07 11:28N 44°25' E 008°47'0 0.0
2017-Dec-07 10:58N 44°25' E 008°47'0 0.0
2017-Dec-07 10:28N 44°25' E 008°47'0 0.0
2017-Dec-07 09:58N 44°25' E 008°47'0 0.0
2017-Dec-07 09:28N 44°25' E 008°47'0 0.0
2017-Dec-07 08:58N 44°25' E 008°47'0 0.0
2017-Dec-07 08:28N 44°25' E 008°47'0 0.0
2017-Dec-07 07:58N 44°25' E 008°47'0 0.0
2017-Dec-07 07:28N 44°25' E 008°47'0 0.0
2017-Dec-07 06:58N 44°25' E 008°47'0 0.0
2017-Dec-07 06:28N 44°25' E 008°47'1 2.3
2017-Dec-07 06:00N 44°25' E 008°46'3 6.2
2017-Dec-07 05:30N 44°22' E 008°43'4 8.7
2017-Dec-07 05:00N 44°18' E 008°45'3 5.8
2017-Dec-07 04:30N 44°16' E 008°46'1 1.4
2017-Dec-07 04:00N 44°15' E 008°47'1 1.3
2017-Dec-07 03:30N 44°14' E 008°47'1 1.1
2017-Dec-07 03:00N 44°14' E 008°48'1 1.1
2017-Dec-07 02:30N 44°13' E 008°48'0 1.0
2017-Dec-07 02:00N 44°13' E 008°49'0 0.7
2017-Dec-07 01:30N 44°13' E 008°49'0 0.6
2017-Dec-07 01:00N 44°12' E 008°48'0 0.6
2017-Dec-07 00:30N 44°12' E 008°48'0 0.6
2017-Dec-07 00:00N 44°12' E 008°48'0 0.7
2017-Dec-06 23:30N 44°12' E 008°48'0 0.6
2017-Dec-06 23:00N 44°12' E 008°47'0 0.8
2017-Dec-06 22:30N 44°11' E 008°47'0 0.8
2017-Dec-06 22:00N 44°11' E 008°47'0 0.8
2017-Dec-06 21:30N 44°11' E 008°47'0 0.4
2017-Dec-06 21:00N 44°10' E 008°47'  
Track history (hours):
 
Tides and Currents Weather Stations Pressure Air Temp Water Temp Dewpoint Dewpoint Depression Visibility Wind Speed Wind Dir Waves Ship Positions

Maersk Kobe

Last reported at 2017-Dec-16 15:26 UTC. Time now 2017-Dec-16 22:46 UTC.
Position N 39°42' W 032°19'.

Length 304 m; draft 13.7 m.

Type: Cargo ship. MMSI: 229521000.

Date/timePositionNaut miles runAvg speedWind from/ knotsBaromVisibWave heightAir tempDewpointWater temp
2017-Dec-16 15:26N 39°42' W 032°19'1117.9
2017-Dec-16 14:48N 39°41' W 032°04'917.7
2017-Dec-16 14:18N 39°41' W 031°53'817.9
2017-Dec-16 13:51N 39°40' W 031°42'1618.0
2017-Dec-16 12:58N 39°38' W 031°22'817.9
2017-Dec-16 12:30N 39°38' W 031°11'918.4
2017-Dec-16 12:00N 39°37' W 030°59'1318.5
2017-Dec-16 11:19N 39°35' W 030°43'618.9
2017-Dec-16 11:00N 39°35' W 030°35'1018.6
2017-Dec-16 10:29N 39°34' W 030°23'918.4
2017-Dec-16 10:00N 39°33' W 030°11'918.4
2017-Dec-16 09:30N 39°32' W 029°59'918.5
2017-Dec-16 09:00N 39°31' W 029°48'918.5
2017-Dec-16 08:30N 39°30' W 029°36'918.6
2017-Dec-16 08:00N 39°29' W 029°24'918.6
2017-Dec-16 07:30N 39°28' W 029°12'918.4
2017-Dec-16 07:00N 39°27' W 028°60'918.4
2017-Dec-16 06:30N 39°26' W 028°48'918.5
2017-Dec-16 06:00N 39°25' W 028°36'918.5
2017-Dec-16 05:30N 39°24' W 028°24'918.3
2017-Dec-16 05:00N 39°23' W 028°12'918.5
2017-Dec-16 04:30N 39°22' W 028°01'918.3
2017-Dec-16 04:00N 39°21' W 027°49'918.4
2017-Dec-16 03:30N 39°21' W 027°37'918.4
2017-Dec-16 03:00N 39°20' W 027°25'918.4
2017-Dec-16 02:30N 39°19' W 027°13'918.2
2017-Dec-16 02:00N 39°18' W 027°01'1318.4
2017-Dec-16 01:19N 39°17' W 026°45'2818.4
2017-Dec-15 23:48N 39°14' W 026°09'618.6
2017-Dec-15 23:28N 39°14' W 026°01'3718.7
2017-Dec-15 21:28N 39°10' W 025°13'919.3
2017-Dec-15 20:59N 39°09' W 025°01'919.1
2017-Dec-15 20:30N 39°08' W 024°49'1319.0
2017-Dec-15 19:47N 39°07' W 024°32'1018.8
2017-Dec-15 19:17N 39°06' W 024°20'818.8
2017-Dec-15 18:51N 39°05' W 024°10'818.9
2017-Dec-15 18:27N 39°05' W 023°60'818.8
2017-Dec-15 18:01N 39°04' W 023°49'1018.9
2017-Dec-15 17:30N 39°03' W 023°37'3518.4
2017-Dec-15 15:34N 39°00' W 022°51'117.7
2017-Dec-15 15:30N 39°00' W 022°50'917.8
2017-Dec-15 15:00N 38°59' W 022°38'917.9
2017-Dec-15 14:29N 38°58' W 022°27'1617.9
2017-Dec-15 13:35N 38°56' W 022°06'218.2
2017-Dec-15 13:30N 38°56' W 022°04'1317.5
2017-Dec-15 12:47N 38°55' W 021°48'57118.0
2017-Dec-14 05:02N 38°01' W 009°42'017.5
2017-Dec-14 05:00N 38°01' W 009°42'917.8
2017-Dec-14 04:30N 37°60' W 009°31'917.8
2017-Dec-14 04:00N 37°59' W 009°19'917.8
2017-Dec-14 03:30N 37°56' W 009°08'917.8
2017-Dec-14 03:00N 37°55' W 008°57'611.2
2017-Dec-14 02:30N 37°55' W 008°50'1 1.1
2017-Dec-14 01:59N 37°56' W 008°51'0 0.0
2017-Dec-14 01:29N 37°56' W 008°51'0 0.0
2017-Dec-14 00:59N 37°56' W 008°51'0 0.0
2017-Dec-14 00:29N 37°56' W 008°51'0 0.0
2017-Dec-13 23:59N 37°56' W 008°51'0 0.0
2017-Dec-13 23:29N 37°56' W 008°51'0 0.0
2017-Dec-13 22:59N 37°56' W 008°51'0 0.0
2017-Dec-13 22:29N 37°56' W 008°51'0 0.0
2017-Dec-13 21:59N 37°56' W 008°51'0 0.0
2017-Dec-13 21:29N 37°56' W 008°51'0 0.0
2017-Dec-13 20:59N 37°56' W 008°51'0 0.0
2017-Dec-13 20:29N 37°56' W 008°51'0 0.0
2017-Dec-13 19:59N 37°56' W 008°51'0 0.0
2017-Dec-13 19:29N 37°56' W 008°51'0 0.0
2017-Dec-13 18:59N 37°56' W 008°51'0 0.0
2017-Dec-13 18:29N 37°56' W 008°51'0 0.0
2017-Dec-13 17:59N 37°56' W 008°51'0 0.0
2017-Dec-13 17:31N 37°56' W 008°51'1 1.6
2017-Dec-13 17:00N 37°55' W 008°50'1 3.0
2017-Dec-13 16:31N 37°54' W 008°50'1 2.0
2017-Dec-13 16:00N 37°53' W 008°51'3 5.6
2017-Dec-13 15:31N 37°51' W 008°53'3 5.2
2017-Dec-13 15:00N 37°52' W 008°56'0 0.6
2017-Dec-13 14:31N 37°52' W 008°57'0 0.6
2017-Dec-13 14:00N 37°52' W 008°57'0 0.6
2017-Dec-13 13:30N 37°52' W 008°57'0 0.5
2017-Dec-13 13:00N 37°52' W 008°58'0 0.4
2017-Dec-13 12:31N 37°53' W 008°58'0 0.4
2017-Dec-13 12:01N 37°53' W 008°58'0 0.6
2017-Dec-13 11:31N 37°53' W 008°58'3 5.1
2017-Dec-13 11:00N 37°50' W 008°57'5 9.1
2017-Dec-13 10:31N 37°46' W 008°58'5 9.3
2017-Dec-13 10:01N 37°41' W 008°60'5 9.2
2017-Dec-13 09:31N 37°37' W 009°02'5 9.2
2017-Dec-13 09:01N 37°33' W 009°04'4 8.8
2017-Dec-13 08:31N 37°29' W 009°07'4 8.6
2017-Dec-13 08:00N 37°25' W 009°09'6 8.7
2017-Dec-13 07:19N 37°20' W 009°13'4 8.8
2017-Dec-13 06:51N 37°16' W 009°15'3 8.6
2017-Dec-13 06:30N 37°13' W 009°17'196 7.6
2017-Dec-12 04:50N 36°09' W 005°26'1 0.5
2017-Dec-12 03:24N 36°08' W 005°26'0 0.0
2017-Dec-12 02:51N 36°08' W 005°26'0 0.0
2017-Dec-12 02:15N 36°08' W 005°26'0 0.0
2017-Dec-12 01:57N 36°08' W 005°26'0 0.0
2017-Dec-12 01:30N 36°08' W 005°26'0 0.0
2017-Dec-12 00:57N 36°08' W 005°26'0 0.0
2017-Dec-12 00:30N 36°08' W 005°26'0 0.0
2017-Dec-12 00:00N 36°08' W 005°26'0 0.0
2017-Dec-11 23:30N 36°08' W 005°26'0 0.0
2017-Dec-11 23:00N 36°08' W 005°26'0 0.0
2017-Dec-11 22:30N 36°08' W 005°26'0 0.0
2017-Dec-11 22:00N 36°08' W 005°26'0 0.0
2017-Dec-11 21:30N 36°08' W 005°26'0 0.0
2017-Dec-11 21:00N 36°08' W 005°26'221 6.4
2017-Dec-10 10:12N 37°14' W 001°03'919.6
2017-Dec-10 09:46N 37°20' W 000°55'619.5
2017-Dec-10 09:27N 37°24' W 000°49'919.3
2017-Dec-10 09:00N 37°30' W 000°41'919.1
2017-Dec-10 08:30N 37°36' W 000°32'918.7
2017-Dec-10 08:00N 37°44' W 000°26'1418.7
2017-Dec-10 07:16N 37°55' W 000°16'518.7
2017-Dec-10 07:00N 37°59' W 000°13'1018.4
2017-Dec-10 06:28N 38°08' W 000°06'435 9.0
2017-Dec-08 06:15N 42°53' E 007°06'617.3
2017-Dec-08 05:54N 42°57' E 007°13'1117.5
2017-Dec-08 05:16N 43°03' E 007°25'617.3
2017-Dec-08 04:55N 43°07' E 007°32'4417.1
2017-Dec-08 02:22N 43°36' E 008°17'717.0
2017-Dec-08 01:58N 43°42' E 008°22'817.2
2017-Dec-08 01:30N 43°49' E 008°26'817.2
2017-Dec-08 01:00N 43°57' E 008°30'917.2
2017-Dec-08 00:30N 44°05' E 008°34'917.8
2017-Dec-08 00:00N 44°13' E 008°38'917.7
2017-Dec-07 23:30N 44°22' E 008°42'5 9.3
2017-Dec-07 23:00N 44°25' E 008°47'0 0.6
2017-Dec-07 22:28N 44°25' E 008°47'0 0.0
2017-Dec-07 21:58N 44°25' E 008°47'0 0.0
2017-Dec-07 21:28N 44°25' E 008°47'0 0.0
2017-Dec-07 20:55N 44°25' E 008°47'0 0.0
2017-Dec-07 20:28N 44°25' E 008°47'0 0.0
2017-Dec-07 19:58N 44°25' E 008°47'0 0.0
2017-Dec-07 19:28N 44°25' E 008°47'0 0.0
2017-Dec-07 18:58N 44°25' E 008°47'0 0.0
2017-Dec-07 18:28N 44°25' E 008°47'0 0.0
2017-Dec-07 17:58N 44°25' E 008°47'0 0.0
2017-Dec-07 17:28N 44°25' E 008°47'0 0.0
2017-Dec-07 16:58N 44°25' E 008°47'0 0.0
2017-Dec-07 16:28N 44°25' E 008°47'0 0.0
2017-Dec-07 15:58N 44°25' E 008°47'0 0.0
2017-Dec-07 15:28N 44°25' E 008°47'0 0.0
2017-Dec-07 14:58N 44°25' E 008°47'0 0.0
2017-Dec-07 14:25N 44°25' E 008°47'0 0.0
2017-Dec-07 13:58N 44°25' E 008°47'0 0.0
2017-Dec-07 13:28N 44°25' E 008°47'0 0.1
2017-Dec-07 12:58N 44°25' E 008°47'0 0.0
2017-Dec-07 12:28N 44°25' E 008°47'0 0.0
2017-Dec-07 11:58N 44°25' E 008°47'0 0.0
2017-Dec-07 11:28N 44°25' E 008°47'0 0.0
2017-Dec-07 10:58N 44°25' E 008°47'0 0.0
2017-Dec-07 10:28N 44°25' E 008°47'0 0.0
2017-Dec-07 09:58N 44°25' E 008°47'0 0.0
2017-Dec-07 09:28N 44°25' E 008°47'0 0.0
2017-Dec-07 08:58N 44°25' E 008°47'0 0.0
2017-Dec-07 08:28N 44°25' E 008°47'0 0.0
2017-Dec-07 07:58N 44°25' E 008°47'0 0.0
2017-Dec-07 07:28N 44°25' E 008°47'0 0.0
2017-Dec-07 06:58N 44°25' E 008°47'0 0.0
2017-Dec-07 06:28N 44°25' E 008°47'1 2.3
2017-Dec-07 06:00N 44°25' E 008°46'3 6.2
2017-Dec-07 05:30N 44°22' E 008°43'4 8.7
2017-Dec-07 05:00N 44°18' E 008°45'3 5.8
2017-Dec-07 04:30N 44°16' E 008°46'1 1.4
2017-Dec-07 04:00N 44°15' E 008°47'1 1.3
2017-Dec-07 03:30N 44°14' E 008°47'1 1.1
2017-Dec-07 03:00N 44°14' E 008°48'1 1.1
2017-Dec-07 02:30N 44°13' E 008°48'0 1.0
2017-Dec-07 02:00N 44°13' E 008°49'0 0.7
2017-Dec-07 01:30N 44°13' E 008°49'0 0.6
2017-Dec-07 01:00N 44°12' E 008°48'0 0.6
2017-Dec-07 00:30N 44°12' E 008°48'0 0.6
2017-Dec-07 00:00N 44°12' E 008°48'0 0.7
2017-Dec-06 23:30N 44°12' E 008°48'0 0.6
2017-Dec-06 23:00N 44°12' E 008°47'0 0.8
2017-Dec-06 22:30N 44°11' E 008°47'0 0.8
2017-Dec-06 22:00N 44°11' E 008°47'0 0.8
2017-Dec-06 21:30N 44°11' E 008°47'0 0.4
2017-Dec-06 21:00N 44°10' E 008°47'  

Dump ship's entire track history